sensor_id;sensor_type;location;lat;lon;timestamp;P1;durP1;ratioP1;P2;durP2;ratioP2
21239;SDS011;10778;48.962;9.018;2023-12-20T00:01:50;8.68;;;5.20;;
21239;SDS011;10778;48.962;9.018;2023-12-20T00:04:16;14.40;;;7.25;;
21239;SDS011;10778;48.962;9.018;2023-12-20T00:06:42;10.45;;;5.93;;
21239;SDS011;10778;48.962;9.018;2023-12-20T00:09:08;9.63;;;5.90;;
21239;SDS011;10778;48.962;9.018;2023-12-20T00:11:33;13.38;;;7.90;;
21239;SDS011;10778;48.962;9.018;2023-12-20T00:13:59;18.13;;;9.88;;
21239;SDS011;10778;48.962;9.018;2023-12-20T00:16:25;25.52;;;13.50;;
21239;SDS011;10778;48.962;9.018;2023-12-20T00:18:52;22.63;;;13.30;;
21239;SDS011;10778;48.962;9.018;2023-12-20T00:21:18;21.55;;;12.20;;
21239;SDS011;10778;48.962;9.018;2023-12-20T00:23:43;19.23;;;11.10;;
21239;SDS011;10778;48.962;9.018;2023-12-20T00:26:09;15.40;;;9.02;;
21239;SDS011;10778;48.962;9.018;2023-12-20T00:28:35;14.77;;;7.60;;
21239;SDS011;10778;48.962;9.018;2023-12-20T00:31:01;13.18;;;7.90;;
21239;SDS011;10778;48.962;9.018;2023-12-20T00:33:27;12.15;;;7.15;;
21239;SDS011;10778;48.962;9.018;2023-12-20T00:35:53;9.48;;;5.97;;
21239;SDS011;10778;48.962;9.018;2023-12-20T00:38:19;4.85;;;4.07;;
21239;SDS011;10778;48.962;9.018;2023-12-20T00:40:45;6.88;;;4.28;;
21239;SDS011;10778;48.962;9.018;2023-12-20T00:43:11;5.70;;;3.88;;
21239;SDS011;10778;48.962;9.018;2023-12-20T00:45:37;6.10;;;3.60;;
21239;SDS011;10778;48.962;9.018;2023-12-20T00:48:04;5.47;;;4.03;;
21239;SDS011;10778;48.962;9.018;2023-12-20T00:50:30;7.93;;;4.88;;
21239;SDS011;10778;48.962;9.018;2023-12-20T00:52:56;9.35;;;6.10;;
21239;SDS011;10778;48.962;9.018;2023-12-20T00:55:22;9.05;;;6.07;;
21239;SDS011;10778;48.962;9.018;2023-12-20T00:57:48;8.98;;;5.97;;
21239;SDS011;10778;48.962;9.018;2023-12-20T01:00:14;9.57;;;6.28;;
21239;SDS011;10778;48.962;9.018;2023-12-20T01:02:41;9.77;;;6.30;;
21239;SDS011;10778;48.962;9.018;2023-12-20T01:05:07;11.30;;;7.60;;
21239;SDS011;10778;48.962;9.018;2023-12-20T01:07:35;11.40;;;7.25;;
21239;SDS011;10778;48.962;9.018;2023-12-20T01:10:01;10.25;;;6.78;;
21239;SDS011;10778;48.962;9.018;2023-12-20T01:12:27;15.30;;;9.40;;
21239;SDS011;10778;48.962;9.018;2023-12-20T01:14:53;13.38;;;8.32;;
21239;SDS011;10778;48.962;9.018;2023-12-20T01:17:19;11.93;;;8.00;;
21239;SDS011;10778;48.962;9.018;2023-12-20T01:19:45;10.73;;;7.13;;
21239;SDS011;10778;48.962;9.018;2023-12-20T01:22:11;12.88;;;8.73;;
21239;SDS011;10778;48.962;9.018;2023-12-20T01:24:37;10.55;;;6.22;;
21239;SDS011;10778;48.962;9.018;2023-12-20T01:27:03;6.43;;;4.90;;
21239;SDS011;10778;48.962;9.018;2023-12-20T01:29:29;7.32;;;4.82;;
21239;SDS011;10778;48.962;9.018;2023-12-20T01:31:55;5.10;;;3.75;;
21239;SDS011;10778;48.962;9.018;2023-12-20T01:34:21;5.78;;;3.60;;
21239;SDS011;10778;48.962;9.018;2023-12-20T01:36:47;5.45;;;3.47;;
21239;SDS011;10778;48.962;9.018;2023-12-20T01:39:12;5.45;;;3.72;;
21239;SDS011;10778;48.962;9.018;2023-12-20T01:41:39;4.50;;;3.08;;
21239;SDS011;10778;48.962;9.018;2023-12-20T01:44:05;4.38;;;3.22;;
21239;SDS011;10778;48.962;9.018;2023-12-20T01:46:31;4.38;;;3.05;;
21239;SDS011;10778;48.962;9.018;2023-12-20T01:48:57;4.30;;;3.15;;
21239;SDS011;10778;48.962;9.018;2023-12-20T01:51:23;3.95;;;2.75;;
21239;SDS011;10778;48.962;9.018;2023-12-20T01:53:50;3.40;;;2.70;;
21239;SDS011;10778;48.962;9.018;2023-12-20T01:56:16;4.35;;;2.80;;
21239;SDS011;10778;48.962;9.018;2023-12-20T01:58:44;2.97;;;2.08;;
21239;SDS011;10778;48.962;9.018;2023-12-20T02:01:11;3.22;;;2.25;;
21239;SDS011;10778;48.962;9.018;2023-12-20T02:03:37;3.97;;;2.30;;
21239;SDS011;10778;48.962;9.018;2023-12-20T02:06:04;2.45;;;1.88;;
21239;SDS011;10778;48.962;9.018;2023-12-20T02:08:31;2.38;;;1.75;;
21239;SDS011;10778;48.962;9.018;2023-12-20T02:10:57;2.00;;;1.60;;
21239;SDS011;10778;48.962;9.018;2023-12-20T02:13:23;2.38;;;1.70;;
21239;SDS011;10778;48.962;9.018;2023-12-20T02:15:49;2.17;;;1.55;;
21239;SDS011;10778;48.962;9.018;2023-12-20T02:18:15;2.60;;;1.52;;
21239;SDS011;10778;48.962;9.018;2023-12-20T02:20:42;2.13;;;1.55;;
21239;SDS011;10778;48.962;9.018;2023-12-20T02:23:08;1.65;;;1.33;;
21239;SDS011;10778;48.962;9.018;2023-12-20T02:25:34;1.90;;;1.27;;
21239;SDS011;10778;48.962;9.018;2023-12-20T02:28:00;2.53;;;1.30;;
21239;SDS011;10778;48.962;9.018;2023-12-20T02:30:27;1.92;;;1.20;;
21239;SDS011;10778;48.962;9.018;2023-12-20T02:32:53;2.58;;;1.27;;
21239;SDS011;10778;48.962;9.018;2023-12-20T02:35:19;1.30;;;1.20;;
21239;SDS011;10778;48.962;9.018;2023-12-20T02:37:45;1.92;;;0.98;;
21239;SDS011;10778;48.962;9.018;2023-12-20T02:40:11;1.73;;;1.08;;
21239;SDS011;10778;48.962;9.018;2023-12-20T02:42:37;1.55;;;1.10;;
21239;SDS011;10778;48.962;9.018;2023-12-20T02:45:03;3.22;;;1.00;;
21239;SDS011;10778;48.962;9.018;2023-12-20T02:47:30;1.25;;;1.10;;
21239;SDS011;10778;48.962;9.018;2023-12-20T02:49:56;3.45;;;1.08;;
21239;SDS011;10778;48.962;9.018;2023-12-20T02:52:25;1.30;;;1.00;;
21239;SDS011;10778;48.962;9.018;2023-12-20T02:54:51;1.52;;;1.00;;
21239;SDS011;10778;48.962;9.018;2023-12-20T02:57:17;1.75;;;1.00;;
21239;SDS011;10778;48.962;9.018;2023-12-20T02:59:43;1.17;;;0.80;;
21239;SDS011;10778;48.962;9.018;2023-12-20T03:02:09;1.48;;;0.80;;
21239;SDS011;10778;48.962;9.018;2023-12-20T03:04:35;2.13;;;0.90;;
21239;SDS011;10778;48.962;9.018;2023-12-20T03:07:01;1.17;;;0.80;;
21239;SDS011;10778;48.962;9.018;2023-12-20T03:09:26;1.27;;;0.90;;
21239;SDS011;10778;48.962;9.018;2023-12-20T03:11:52;1.30;;;0.80;;
21239;SDS011;10778;48.962;9.018;2023-12-20T03:14:18;0.90;;;0.80;;
21239;SDS011;10778;48.962;9.018;2023-12-20T03:16:50;1.42;;;0.80;;
21239;SDS011;10778;48.962;9.018;2023-12-20T03:19:17;0.88;;;0.70;;
21239;SDS011;10778;48.962;9.018;2023-12-20T03:21:44;1.25;;;0.80;;
21239;SDS011;10778;48.962;9.018;2023-12-20T03:24:10;0.90;;;0.70;;
21239;SDS011;10778;48.962;9.018;2023-12-20T03:26:36;0.90;;;0.80;;
21239;SDS011;10778;48.962;9.018;2023-12-20T03:29:02;1.45;;;0.90;;
21239;SDS011;10778;48.962;9.018;2023-12-20T03:31:28;0.88;;;0.68;;
21239;SDS011;10778;48.962;9.018;2023-12-20T03:33:54;1.17;;;0.65;;
21239;SDS011;10778;48.962;9.018;2023-12-20T03:36:20;1.02;;;0.90;;
21239;SDS011;10778;48.962;9.018;2023-12-20T03:38:46;1.58;;;0.70;;
21239;SDS011;10778;48.962;9.018;2023-12-20T03:41:13;1.65;;;0.70;;
21239;SDS011;10778;48.962;9.018;2023-12-20T03:43:39;0.90;;;0.80;;
21239;SDS011;10778;48.962;9.018;2023-12-20T03:46:05;0.95;;;0.85;;
21239;SDS011;10778;48.962;9.018;2023-12-20T03:48:31;0.60;;;0.57;;
21239;SDS011;10778;48.962;9.018;2023-12-20T03:50:57;0.70;;;0.65;;
21239;SDS011;10778;48.962;9.018;2023-12-20T03:53:23;1.90;;;0.73;;
21239;SDS011;10778;48.962;9.018;2023-12-20T03:55:49;1.27;;;0.80;;
21239;SDS011;10778;48.962;9.018;2023-12-20T03:58:15;0.80;;;0.70;;
21239;SDS011;10778;48.962;9.018;2023-12-20T04:00:41;0.80;;;0.70;;
21239;SDS011;10778;48.962;9.018;2023-12-20T04:03:07;0.90;;;0.70;;
21239;SDS011;10778;48.962;9.018;2023-12-20T04:05:33;1.45;;;0.80;;
21239;SDS011;10778;48.962;9.018;2023-12-20T04:08:00;1.30;;;0.80;;
21239;SDS011;10778;48.962;9.018;2023-12-20T04:10:27;0.80;;;0.80;;
21239;SDS011;10778;48.962;9.018;2023-12-20T04:12:53;1.52;;;0.77;;
21239;SDS011;10778;48.962;9.018;2023-12-20T04:15:20;1.20;;;0.90;;
21239;SDS011;10778;48.962;9.018;2023-12-20T04:17:46;1.77;;;1.10;;
21239;SDS011;10778;48.962;9.018;2023-12-20T04:20:12;2.47;;;0.90;;
21239;SDS011;10778;48.962;9.018;2023-12-20T04:22:38;1.58;;;0.88;;
21239;SDS011;10778;48.962;9.018;2023-12-20T04:25:04;1.27;;;0.90;;
21239;SDS011;10778;48.962;9.018;2023-12-20T04:27:30;0.93;;;0.80;;
21239;SDS011;10778;48.962;9.018;2023-12-20T04:29:56;1.00;;;0.77;;
21239;SDS011;10778;48.962;9.018;2023-12-20T04:32:22;1.05;;;0.93;;
21239;SDS011;10778;48.962;9.018;2023-12-20T04:34:48;2.25;;;1.02;;
21239;SDS011;10778;48.962;9.018;2023-12-20T04:37:14;0.90;;;0.88;;
21239;SDS011;10778;48.962;9.018;2023-12-20T04:39:40;1.02;;;0.93;;
21239;SDS011;10778;48.962;9.018;2023-12-20T04:42:07;1.10;;;0.90;;
21239;SDS011;10778;48.962;9.018;2023-12-20T04:44:33;1.02;;;0.93;;
21239;SDS011;10778;48.962;9.018;2023-12-20T04:46:59;2.15;;;1.15;;
21239;SDS011;10778;48.962;9.018;2023-12-20T04:49:25;1.25;;;1.00;;
21239;SDS011;10778;48.962;9.018;2023-12-20T04:51:51;1.30;;;1.00;;
21239;SDS011;10778;48.962;9.018;2023-12-20T04:54:17;1.55;;;1.10;;
21239;SDS011;10778;48.962;9.018;2023-12-20T04:56:43;1.30;;;1.05;;
21239;SDS011;10778;48.962;9.018;2023-12-20T04:59:09;1.92;;;1.20;;
21239;SDS011;10778;48.962;9.018;2023-12-20T05:01:35;3.85;;;1.52;;
21239;SDS011;10778;48.962;9.018;2023-12-20T05:04:01;2.70;;;1.50;;
21239;SDS011;10778;48.962;9.018;2023-12-20T05:06:27;2.95;;;2.00;;
21239;SDS011;10778;48.962;9.018;2023-12-20T05:08:53;2.95;;;2.10;;
21239;SDS011;10778;48.962;9.018;2023-12-20T05:11:19;2.20;;;1.75;;
21239;SDS011;10778;48.962;9.018;2023-12-20T05:13:45;3.20;;;2.30;;
21239;SDS011;10778;48.962;9.018;2023-12-20T05:16:11;2.38;;;1.90;;
21239;SDS011;10778;48.962;9.018;2023-12-20T05:18:37;2.55;;;2.15;;
21239;SDS011;10778;48.962;9.018;2023-12-20T05:21:04;3.95;;;2.45;;
21239;SDS011;10778;48.962;9.018;2023-12-20T05:23:30;4.82;;;3.08;;
21239;SDS011;10778;48.962;9.018;2023-12-20T05:25:56;3.45;;;3.03;;
21239;SDS011;10778;48.962;9.018;2023-12-20T05:28:22;3.63;;;2.63;;
21239;SDS011;10778;48.962;9.018;2023-12-20T05:30:48;4.03;;;2.92;;
21239;SDS011;10778;48.962;9.018;2023-12-20T05:33:14;4.38;;;2.90;;
21239;SDS011;10778;48.962;9.018;2023-12-20T05:35:40;4.10;;;3.10;;
21239;SDS011;10778;48.962;9.018;2023-12-20T05:38:06;5.43;;;3.33;;
21239;SDS011;10778;48.962;9.018;2023-12-20T05:40:32;5.45;;;3.20;;
21239;SDS011;10778;48.962;9.018;2023-12-20T05:42:58;5.90;;;3.38;;
21239;SDS011;10778;48.962;9.018;2023-12-20T05:45:24;4.30;;;3.38;;
21239;SDS011;10778;48.962;9.018;2023-12-20T05:47:50;3.58;;;2.97;;
21239;SDS011;10778;48.962;9.018;2023-12-20T05:50:16;3.90;;;3.00;;
21239;SDS011;10778;48.962;9.018;2023-12-20T05:52:42;3.90;;;3.05;;
21239;SDS011;10778;48.962;9.018;2023-12-20T05:55:08;5.30;;;3.45;;
21239;SDS011;10778;48.962;9.018;2023-12-20T05:57:34;4.50;;;3.28;;
21239;SDS011;10778;48.962;9.018;2023-12-20T06:00:00;3.90;;;3.17;;
21239;SDS011;10778;48.962;9.018;2023-12-20T06:02:26;3.92;;;3.22;;
21239;SDS011;10778;48.962;9.018;2023-12-20T06:04:52;4.00;;;3.30;;
21239;SDS011;10778;48.962;9.018;2023-12-20T06:07:18;4.03;;;3.15;;
21239;SDS011;10778;48.962;9.018;2023-12-20T06:09:44;4.22;;;3.13;;
21239;SDS011;10778;48.962;9.018;2023-12-20T06:12:10;3.97;;;3.42;;
21239;SDS011;10778;48.962;9.018;2023-12-20T06:14:36;5.30;;;3.50;;
21239;SDS011;10778;48.962;9.018;2023-12-20T06:17:02;4.65;;;3.92;;
21239;SDS011;10778;48.962;9.018;2023-12-20T06:19:29;5.47;;;4.00;;
21239;SDS011;10778;48.962;9.018;2023-12-20T06:21:54;5.70;;;4.55;;
21239;SDS011;10778;48.962;9.018;2023-12-20T06:24:20;4.13;;;3.70;;
21239;SDS011;10778;48.962;9.018;2023-12-20T06:26:47;5.40;;;4.45;;
21239;SDS011;10778;48.962;9.018;2023-12-20T06:29:13;5.63;;;4.70;;
21239;SDS011;10778;48.962;9.018;2023-12-20T06:31:39;5.70;;;4.32;;
21239;SDS011;10778;48.962;9.018;2023-12-20T06:34:05;5.30;;;4.40;;
21239;SDS011;10778;48.962;9.018;2023-12-20T06:36:31;6.10;;;4.88;;
21239;SDS011;10778;48.962;9.018;2023-12-20T06:38:57;6.38;;;4.68;;
21239;SDS011;10778;48.962;9.018;2023-12-20T06:41:23;5.78;;;4.68;;
21239;SDS011;10778;48.962;9.018;2023-12-20T06:43:50;6.85;;;4.57;;
21239;SDS011;10778;48.962;9.018;2023-12-20T06:46:17;5.38;;;4.65;;
21239;SDS011;10778;48.962;9.018;2023-12-20T06:48:43;6.32;;;4.80;;
21239;SDS011;10778;48.962;9.018;2023-12-20T06:51:13;5.20;;;4.70;;
21239;SDS011;10778;48.962;9.018;2023-12-20T06:53:40;6.57;;;5.20;;
21239;SDS011;10778;48.962;9.018;2023-12-20T06:56:06;6.78;;;5.40;;
21239;SDS011;10778;48.962;9.018;2023-12-20T06:58:33;6.60;;;5.60;;
21239;SDS011;10778;48.962;9.018;2023-12-20T07:00:59;6.82;;;5.95;;
21239;SDS011;10778;48.962;9.018;2023-12-20T07:03:24;6.70;;;5.65;;
21239;SDS011;10778;48.962;9.018;2023-12-20T07:05:50;8.27;;;6.32;;
21239;SDS011;10778;48.962;9.018;2023-12-20T07:08:16;6.65;;;5.80;;
21239;SDS011;10778;48.962;9.018;2023-12-20T07:10:42;7.38;;;6.60;;
21239;SDS011;10778;48.962;9.018;2023-12-20T07:13:08;7.80;;;7.00;;
21239;SDS011;10778;48.962;9.018;2023-12-20T07:15:34;7.65;;;6.80;;
21239;SDS011;10778;48.962;9.018;2023-12-20T07:18:02;7.30;;;6.30;;
21239;SDS011;10778;48.962;9.018;2023-12-20T07:20:28;8.23;;;6.68;;
21239;SDS011;10778;48.962;9.018;2023-12-20T07:22:54;7.38;;;6.57;;
21239;SDS011;10778;48.962;9.018;2023-12-20T07:25:20;7.93;;;6.10;;
21239;SDS011;10778;48.962;9.018;2023-12-20T07:27:46;7.40;;;6.03;;
21239;SDS011;10778;48.962;9.018;2023-12-20T07:30:12;6.35;;;5.75;;
21239;SDS011;10778;48.962;9.018;2023-12-20T07:32:38;6.20;;;5.38;;
21239;SDS011;10778;48.962;9.018;2023-12-20T07:35:04;6.05;;;5.25;;
21239;SDS011;10778;48.962;9.018;2023-12-20T07:37:31;6.38;;;5.50;;
21239;SDS011;10778;48.962;9.018;2023-12-20T07:39:57;5.93;;;5.32;;
21239;SDS011;10778;48.962;9.018;2023-12-20T07:42:23;8.15;;;5.30;;
21239;SDS011;10778;48.962;9.018;2023-12-20T07:44:49;6.25;;;5.07;;
21239;SDS011;10778;48.962;9.018;2023-12-20T07:47:15;6.75;;;5.35;;
21239;SDS011;10778;48.962;9.018;2023-12-20T07:49:50;6.43;;;4.95;;
21239;SDS011;10778;48.962;9.018;2023-12-20T07:52:17;7.00;;;4.93;;
21239;SDS011;10778;48.962;9.018;2023-12-20T07:54:44;8.05;;;5.10;;
21239;SDS011;10778;48.962;9.018;2023-12-20T07:57:11;6.18;;;4.85;;
21239;SDS011;10778;48.962;9.018;2023-12-20T07:59:38;5.93;;;4.93;;
21239;SDS011;10778;48.962;9.018;2023-12-20T08:02:04;5.15;;;4.57;;
21239;SDS011;10778;48.962;9.018;2023-12-20T08:04:30;6.32;;;4.80;;
21239;SDS011;10778;48.962;9.018;2023-12-20T08:06:56;5.40;;;4.50;;
21239;SDS011;10778;48.962;9.018;2023-12-20T08:09:22;6.07;;;4.18;;
21239;SDS011;10778;48.962;9.018;2023-12-20T08:11:48;5.75;;;4.00;;
21239;SDS011;10778;48.962;9.018;2023-12-20T08:14:15;5.50;;;4.10;;
21239;SDS011;10778;48.962;9.018;2023-12-20T08:16:41;5.10;;;3.97;;
21239;SDS011;10778;48.962;9.018;2023-12-20T08:19:07;4.85;;;3.25;;
21239;SDS011;10778;48.962;9.018;2023-12-20T08:21:33;4.72;;;3.00;;
21239;SDS011;10778;48.962;9.018;2023-12-20T08:23:59;3.70;;;2.95;;
21239;SDS011;10778;48.962;9.018;2023-12-20T08:26:28;3.33;;;2.40;;
21239;SDS011;10778;48.962;9.018;2023-12-20T08:28:54;3.80;;;2.50;;
21239;SDS011;10778;48.962;9.018;2023-12-20T08:31:20;6.18;;;3.08;;
21239;SDS011;10778;48.962;9.018;2023-12-20T08:33:47;6.97;;;3.10;;
21239;SDS011;10778;48.962;9.018;2023-12-20T08:36:14;6.50;;;3.28;;
21239;SDS011;10778;48.962;9.018;2023-12-20T08:38:40;5.30;;;3.30;;
21239;SDS011;10778;48.962;9.018;2023-12-20T08:41:06;4.05;;;2.92;;
21239;SDS011;10778;48.962;9.018;2023-12-20T08:43:33;4.18;;;2.75;;
21239;SDS011;10778;48.962;9.018;2023-12-20T08:46:01;4.80;;;2.90;;
21239;SDS011;10778;48.962;9.018;2023-12-20T08:48:27;6.78;;;3.72;;
21239;SDS011;10778;48.962;9.018;2023-12-20T08:50:54;4.32;;;3.20;;
21239;SDS011;10778;48.962;9.018;2023-12-20T08:53:20;5.05;;;2.88;;
21239;SDS011;10778;48.962;9.018;2023-12-20T08:55:46;4.57;;;3.20;;
21239;SDS011;10778;48.962;9.018;2023-12-20T08:58:12;3.63;;;2.72;;
21239;SDS011;10778;48.962;9.018;2023-12-20T09:00:39;3.60;;;2.72;;
21239;SDS011;10778;48.962;9.018;2023-12-20T09:03:05;3.95;;;2.70;;
21239;SDS011;10778;48.962;9.018;2023-12-20T09:05:31;6.05;;;2.70;;
21239;SDS011;10778;48.962;9.018;2023-12-20T09:07:57;5.55;;;2.70;;
21239;SDS011;10778;48.962;9.018;2023-12-20T09:10:23;6.32;;;3.17;;
21239;SDS011;10778;48.962;9.018;2023-12-20T09:12:49;4.45;;;3.05;;
21239;SDS011;10778;48.962;9.018;2023-12-20T09:15:16;4.70;;;2.78;;
21239;SDS011;10778;48.962;9.018;2023-12-20T09:17:43;5.25;;;2.83;;
21239;SDS011;10778;48.962;9.018;2023-12-20T09:20:09;4.40;;;2.42;;
21239;SDS011;10778;48.962;9.018;2023-12-20T09:22:35;5.15;;;2.60;;
21239;SDS011;10778;48.962;9.018;2023-12-20T09:25:04;6.00;;;2.90;;
21239;SDS011;10778;48.962;9.018;2023-12-20T09:27:31;3.63;;;2.30;;
21239;SDS011;10778;48.962;9.018;2023-12-20T09:29:57;3.60;;;2.40;;
21239;SDS011;10778;48.962;9.018;2023-12-20T09:32:22;6.07;;;2.40;;
21239;SDS011;10778;48.962;9.018;2023-12-20T09:34:48;8.88;;;4.03;;
21239;SDS011;10778;48.962;9.018;2023-12-20T09:37:15;6.10;;;2.50;;
21239;SDS011;10778;48.962;9.018;2023-12-20T09:39:41;6.32;;;2.70;;
21239;SDS011;10778;48.962;9.018;2023-12-20T09:42:07;5.57;;;2.13;;
21239;SDS011;10778;48.962;9.018;2023-12-20T09:44:33;4.30;;;1.88;;
21239;SDS011;10778;48.962;9.018;2023-12-20T09:47:03;5.40;;;1.80;;
21239;SDS011;10778;48.962;9.018;2023-12-20T09:49:30;5.10;;;1.75;;
21239;SDS011;10778;48.962;9.018;2023-12-20T09:51:56;5.55;;;1.65;;
21239;SDS011;10778;48.962;9.018;2023-12-20T09:54:22;4.93;;;1.75;;
21239;SDS011;10778;48.962;9.018;2023-12-20T09:56:49;6.07;;;1.88;;
21239;SDS011;10778;48.962;9.018;2023-12-20T09:59:15;6.00;;;1.67;;
21239;SDS011;10778;48.962;9.018;2023-12-20T10:01:41;5.70;;;1.63;;
21239;SDS011;10778;48.962;9.018;2023-12-20T10:04:09;5.25;;;1.70;;
21239;SDS011;10778;48.962;9.018;2023-12-20T10:06:41;3.70;;;1.52;;
21239;SDS011;10778;48.962;9.018;2023-12-20T10:09:09;6.45;;;1.45;;
21239;SDS011;10778;48.962;9.018;2023-12-20T10:11:36;7.25;;;1.80;;
21239;SDS011;10778;48.962;9.018;2023-12-20T10:14:06;8.05;;;1.88;;
21239;SDS011;10778;48.962;9.018;2023-12-20T10:16:33;7.32;;;1.50;;
21239;SDS011;10778;48.962;9.018;2023-12-20T10:19:00;5.95;;;1.40;;
21239;SDS011;10778;48.962;9.018;2023-12-20T10:21:30;6.00;;;1.63;;
21239;SDS011;10778;48.962;9.018;2023-12-20T10:23:56;8.43;;;1.60;;
21239;SDS011;10778;48.962;9.018;2023-12-20T10:26:23;6.97;;;1.80;;
21239;SDS011;10778;48.962;9.018;2023-12-20T10:28:54;7.60;;;2.15;;
21239;SDS011;10778;48.962;9.018;2023-12-20T10:31:27;6.72;;;1.70;;
21239;SDS011;10778;48.962;9.018;2023-12-20T10:33:57;6.63;;;1.85;;
21239;SDS011;10778;48.962;9.018;2023-12-20T10:36:25;7.35;;;2.08;;
21239;SDS011;10778;48.962;9.018;2023-12-20T10:38:55;4.47;;;1.90;;
21239;SDS011;10778;48.962;9.018;2023-12-20T10:41:26;6.25;;;1.77;;
21239;SDS011;10778;48.962;9.018;2023-12-20T10:44:03;6.63;;;1.70;;
21239;SDS011;10778;48.962;9.018;2023-12-20T10:46:33;5.78;;;1.80;;
21239;SDS011;10778;48.962;9.018;2023-12-20T10:49:02;5.28;;;1.80;;
21239;SDS011;10778;48.962;9.018;2023-12-20T10:51:28;11.07;;;2.00;;
21239;SDS011;10778;48.962;9.018;2023-12-20T10:53:56;8.60;;;2.15;;
21239;SDS011;10778;48.962;9.018;2023-12-20T10:56:22;7.57;;;2.35;;
21239;SDS011;10778;48.962;9.018;2023-12-20T10:58:51;7.57;;;1.52;;
21239;SDS011;10778;48.962;9.018;2023-12-20T11:01:17;6.22;;;1.83;;
21239;SDS011;10778;48.962;9.018;2023-12-20T11:03:53;8.98;;;2.03;;
21239;SDS011;10778;48.962;9.018;2023-12-20T11:06:43;9.05;;;2.50;;
21239;SDS011;10778;48.962;9.018;2023-12-20T11:09:24;9.10;;;2.90;;
21239;SDS011;10778;48.962;9.018;2023-12-20T11:14:47;5.30;;;1.98;;
21239;SDS011;10778;48.962;9.018;2023-12-20T11:17:14;5.22;;;1.90;;
21239;SDS011;10778;48.962;9.018;2023-12-20T11:22:30;5.93;;;1.98;;
21239;SDS011;10778;48.962;9.018;2023-12-20T11:25:04;6.93;;;1.92;;
21239;SDS011;10778;48.962;9.018;2023-12-20T11:27:36;5.32;;;1.60;;
21239;SDS011;10778;48.962;9.018;2023-12-20T11:30:06;7.22;;;1.92;;
21239;SDS011;10778;48.962;9.018;2023-12-20T11:32:35;7.47;;;1.77;;
21239;SDS011;10778;48.962;9.018;2023-12-20T11:37:38;5.90;;;2.20;;
21239;SDS011;10778;48.962;9.018;2023-12-20T11:40:11;7.53;;;2.00;;
21239;SDS011;10778;48.962;9.018;2023-12-20T11:42:38;5.43;;;1.92;;
21239;SDS011;10778;48.962;9.018;2023-12-20T11:45:05;7.75;;;2.42;;
21239;SDS011;10778;48.962;9.018;2023-12-20T11:47:33;6.25;;;2.40;;
21239;SDS011;10778;48.962;9.018;2023-12-20T11:50:00;9.02;;;2.60;;
21239;SDS011;10778;48.962;9.018;2023-12-20T11:52:29;7.07;;;2.22;;
21239;SDS011;10778;48.962;9.018;2023-12-20T11:54:56;6.20;;;2.20;;
21239;SDS011;10778;48.962;9.018;2023-12-20T11:57:23;9.45;;;2.28;;
21239;SDS011;10778;48.962;9.018;2023-12-20T11:59:49;5.82;;;1.75;;
21239;SDS011;10778;48.962;9.018;2023-12-20T12:02:15;6.82;;;1.80;;
21239;SDS011;10778;48.962;9.018;2023-12-20T12:04:41;11.05;;;2.25;;
21239;SDS011;10778;48.962;9.018;2023-12-20T12:07:07;6.78;;;1.65;;
21239;SDS011;10778;48.962;9.018;2023-12-20T12:09:34;5.88;;;1.90;;
21239;SDS011;10778;48.962;9.018;2023-12-20T12:12:00;6.15;;;1.83;;
21239;SDS011;10778;48.962;9.018;2023-12-20T12:14:26;7.45;;;1.95;;
21239;SDS011;10778;48.962;9.018;2023-12-20T12:16:53;8.57;;;1.98;;
21239;SDS011;10778;48.962;9.018;2023-12-20T12:19:22;7.07;;;1.70;;
21239;SDS011;10778;48.962;9.018;2023-12-20T12:21:50;7.97;;;1.90;;
21239;SDS011;10778;48.962;9.018;2023-12-20T12:24:19;6.70;;;2.00;;
21239;SDS011;10778;48.962;9.018;2023-12-20T12:26:56;9.13;;;1.70;;
21239;SDS011;10778;48.962;9.018;2023-12-20T12:29:23;8.63;;;1.98;;
21239;SDS011;10778;48.962;9.018;2023-12-20T12:31:50;9.40;;;2.40;;
21239;SDS011;10778;48.962;9.018;2023-12-20T12:34:19;9.30;;;2.08;;
21239;SDS011;10778;48.962;9.018;2023-12-20T12:36:45;6.53;;;2.00;;
21239;SDS011;10778;48.962;9.018;2023-12-20T12:39:12;9.48;;;1.98;;
21239;SDS011;10778;48.962;9.018;2023-12-20T12:41:41;9.27;;;2.05;;
21239;SDS011;10778;48.962;9.018;2023-12-20T12:44:07;8.05;;;1.83;;
21239;SDS011;10778;48.962;9.018;2023-12-20T12:46:33;6.10;;;2.00;;
21239;SDS011;10778;48.962;9.018;2023-12-20T12:48:59;6.32;;;2.15;;
21239;SDS011;10778;48.962;9.018;2023-12-20T12:51:25;8.85;;;1.95;;
21239;SDS011;10778;48.962;9.018;2023-12-20T12:53:53;8.52;;;1.92;;
21239;SDS011;10778;48.962;9.018;2023-12-20T12:56:19;11.25;;;1.92;;
21239;SDS011;10778;48.962;9.018;2023-12-20T12:58:45;8.00;;;1.70;;
21239;SDS011;10778;48.962;9.018;2023-12-20T13:01:11;11.40;;;2.45;;
21239;SDS011;10778;48.962;9.018;2023-12-20T13:03:37;8.60;;;2.55;;
21239;SDS011;10778;48.962;9.018;2023-12-20T13:06:03;7.70;;;2.83;;
21239;SDS011;10778;48.962;9.018;2023-12-20T13:08:31;9.00;;;2.40;;
21239;SDS011;10778;48.962;9.018;2023-12-20T13:10:57;8.45;;;2.13;;
21239;SDS011;10778;48.962;9.018;2023-12-20T13:13:26;9.65;;;2.72;;
21239;SDS011;10778;48.962;9.018;2023-12-20T13:15:53;7.50;;;2.00;;
21239;SDS011;10778;48.962;9.018;2023-12-20T13:18:21;6.22;;;2.00;;
21239;SDS011;10778;48.962;9.018;2023-12-20T13:20:48;10.40;;;2.15;;
21239;SDS011;10778;48.962;9.018;2023-12-20T13:23:14;8.57;;;1.90;;
21239;SDS011;10778;48.962;9.018;2023-12-20T13:25:40;7.15;;;1.95;;
21239;SDS011;10778;48.962;9.018;2023-12-20T13:28:07;6.35;;;1.80;;
21239;SDS011;10778;48.962;9.018;2023-12-20T13:30:34;14.25;;;2.40;;
21239;SDS011;10778;48.962;9.018;2023-12-20T13:33:00;20.25;;;3.05;;
21239;SDS011;10778;48.962;9.018;2023-12-20T13:35:26;8.25;;;1.98;;
21239;SDS011;10778;48.962;9.018;2023-12-20T13:37:52;10.50;;;2.10;;
21239;SDS011;10778;48.962;9.018;2023-12-20T13:40:18;6.20;;;2.20;;
21239;SDS011;10778;48.962;9.018;2023-12-20T13:42:44;9.70;;;2.42;;
21239;SDS011;10778;48.962;9.018;2023-12-20T13:45:11;8.15;;;2.10;;
21239;SDS011;10778;48.962;9.018;2023-12-20T13:47:37;9.88;;;3.15;;
21239;SDS011;10778;48.962;9.018;2023-12-20T13:50:03;8.80;;;3.85;;
21239;SDS011;10778;48.962;9.018;2023-12-20T13:52:29;6.43;;;2.80;;
21239;SDS011;10778;48.962;9.018;2023-12-20T13:54:55;31.08;;;4.28;;
21239;SDS011;10778;48.962;9.018;2023-12-20T13:57:21;10.55;;;2.95;;
21239;SDS011;10778;48.962;9.018;2023-12-20T13:59:47;8.25;;;2.30;;
21239;SDS011;10778;48.962;9.018;2023-12-20T14:02:13;11.93;;;2.88;;
21239;SDS011;10778;48.962;9.018;2023-12-20T14:04:40;8.50;;;2.33;;
21239;SDS011;10778;48.962;9.018;2023-12-20T14:07:06;9.23;;;2.63;;
21239;SDS011;10778;48.962;9.018;2023-12-20T14:09:33;10.60;;;2.42;;
21239;SDS011;10778;48.962;9.018;2023-12-20T14:11:59;10.70;;;2.60;;
21239;SDS011;10778;48.962;9.018;2023-12-20T14:14:25;7.55;;;2.15;;
21239;SDS011;10778;48.962;9.018;2023-12-20T14:16:51;8.20;;;1.92;;
21239;SDS011;10778;48.962;9.018;2023-12-20T14:19:17;10.25;;;2.42;;
21239;SDS011;10778;48.962;9.018;2023-12-20T14:21:43;12.65;;;2.65;;
21239;SDS011;10778;48.962;9.018;2023-12-20T14:24:12;12.10;;;3.60;;
21239;SDS011;10778;48.962;9.018;2023-12-20T14:26:40;10.50;;;3.50;;
21239;SDS011;10778;48.962;9.018;2023-12-20T14:29:07;9.80;;;3.35;;
21239;SDS011;10778;48.962;9.018;2023-12-20T14:31:33;15.68;;;4.22;;
21239;SDS011;10778;48.962;9.018;2023-12-20T14:33:59;14.40;;;5.72;;
21239;SDS011;10778;48.962;9.018;2023-12-20T14:36:29;16.42;;;5.28;;
21239;SDS011;10778;48.962;9.018;2023-12-20T14:38:56;14.25;;;5.15;;
21239;SDS011;10778;48.962;9.018;2023-12-20T14:41:22;15.77;;;5.93;;
21239;SDS011;10778;48.962;9.018;2023-12-20T14:43:50;19.75;;;9.60;;
21239;SDS011;10778;48.962;9.018;2023-12-20T14:46:18;16.70;;;5.90;;
21239;SDS011;10778;48.962;9.018;2023-12-20T14:48:44;17.23;;;4.47;;
21239;SDS011;10778;48.962;9.018;2023-12-20T14:51:10;14.68;;;5.15;;